createdAt,value
2022-11-15T00:01:49.635Z,10.38
2022-11-15T00:04:35.378Z,8.35
2022-11-15T00:07:48.310Z,7.72
2022-11-15T00:10:27.027Z,9.43
2022-11-15T00:13:14.000Z,10.27
2022-11-15T00:16:00.492Z,8.45
2022-11-15T00:18:50.865Z,8.88
2022-11-15T00:21:37.188Z,12.55
2022-11-15T00:24:22.952Z,8.65
2022-11-15T00:27:08.723Z,9.18
2022-11-15T00:29:55.333Z,8.40
2022-11-15T00:32:41.207Z,8.27
2022-11-15T00:35:28.038Z,8.27
2022-11-15T00:38:13.765Z,8.15
2022-11-15T00:40:59.485Z,9.23
2022-11-15T00:43:45.625Z,7.30
2022-11-15T00:46:31.663Z,6.95
2022-11-15T00:49:17.663Z,8.15
2022-11-15T00:52:03.399Z,7.20
2022-11-15T00:54:49.018Z,8.43
2022-11-15T00:57:37.888Z,7.18
2022-11-15T01:00:23.681Z,8.95
2022-11-15T01:03:21.993Z,7.45
2022-11-15T01:06:08.701Z,8.77
2022-11-15T01:08:54.358Z,7.47
2022-11-15T01:11:40.270Z,7.10
2022-11-15T01:14:27.409Z,9.18
2022-11-15T01:17:13.038Z,7.78
2022-11-15T01:20:01.918Z,8.57
2022-11-15T01:22:47.762Z,7.63
2022-11-15T01:25:33.792Z,8.88
2022-11-15T01:28:19.483Z,7.03
2022-11-15T01:31:06.684Z,7.90
2022-11-15T01:33:52.634Z,7.07
2022-11-15T01:36:38.487Z,8.18
2022-11-15T01:39:24.358Z,7.78
2022-11-15T01:42:13.978Z,7.97
2022-11-15T01:44:59.743Z,11.32
2022-11-15T01:47:48.510Z,8.15
2022-11-15T01:50:35.520Z,8.55
2022-11-15T01:53:23.309Z,8.30
2022-11-15T01:56:11.176Z,8.18
2022-11-15T01:59:23.704Z,7.70
2022-11-15T02:02:09.959Z,6.88
2022-11-15T02:04:55.999Z,8.73
2022-11-15T02:07:42.140Z,7.90
2022-11-15T02:10:29.376Z,7.28
2022-11-15T02:13:16.133Z,7.40
2022-11-15T02:16:15.314Z,8.60
2022-11-15T02:19:06.920Z,8.63
2022-11-15T02:22:02.479Z,7.13
2022-11-15T02:25:06.940Z,8.57
2022-11-15T02:27:52.750Z,6.97
2022-11-15T02:30:38.813Z,9.55
2022-11-15T02:33:28.032Z,8.57
2022-11-15T02:36:19.329Z,10.32
2022-11-15T02:39:10.586Z,8.20
2022-11-15T02:42:03.147Z,8.52
2022-11-15T02:44:50.155Z,7.68
2022-11-15T02:47:39.582Z,8.93
2022-11-15T02:50:27.637Z,8.07
2022-11-15T02:53:13.421Z,8.43
2022-11-15T02:55:59.246Z,6.65
2022-11-15T02:59:03.785Z,7.80
2022-11-15T03:02:12.618Z,11.27
2022-11-15T03:05:00.280Z,8.85
2022-11-15T03:07:55.856Z,8.75
2022-11-15T03:11:04.109Z,7.40
2022-11-15T03:14:16.189Z,11.68
2022-11-15T03:17:09.150Z,8.15
2022-11-15T03:19:56.711Z,10.15
2022-11-15T03:22:45.115Z,9.60
2022-11-15T03:25:31.548Z,8.73
2022-11-15T03:28:20.889Z,7.90
2022-11-15T03:31:27.139Z,9.82
2022-11-15T03:34:15.843Z,9.88
2022-11-15T03:37:01.785Z,11.45
2022-11-15T03:39:47.472Z,12.40
2022-11-15T03:42:45.877Z,7.63
2022-11-15T03:45:35.149Z,13.25
2022-11-15T03:48:26.264Z,12.13
2022-11-15T03:51:12.816Z,8.73
2022-11-15T03:53:58.523Z,9.45
2022-11-15T03:56:44.274Z,12.80
2022-11-15T03:59:30.123Z,13.15
2022-11-15T04:02:16.229Z,10.18
2022-11-15T04:05:02.022Z,9.82
2022-11-15T04:07:47.639Z,12.60
2022-11-15T04:10:34.024Z,7.80
2022-11-15T04:13:20.108Z,8.85
2022-11-15T04:16:06.164Z,11.27
2022-11-15T04:19:11.774Z,10.77
2022-11-15T04:22:33.159Z,12.55
2022-11-15T04:25:22.999Z,9.40
2022-11-15T04:28:10.230Z,7.50
2022-11-15T04:30:55.960Z,14.82
2022-11-15T04:33:41.625Z,14.23
2022-11-15T04:36:49.931Z,13.45
2022-11-15T04:39:36.053Z,8.00
2022-11-15T04:42:21.838Z,16.48
2022-11-15T04:45:07.928Z,9.07
2022-11-15T04:47:53.947Z,9.43
2022-11-15T04:50:39.835Z,6.72
2022-11-15T04:53:25.593Z,7.47
2022-11-15T04:56:11.279Z,10.82
2022-11-15T04:58:56.987Z,7.65
2022-11-15T05:01:45.081Z,11.00
2022-11-15T05:04:30.967Z,8.88
2022-11-15T05:07:16.869Z,17.67
2022-11-15T05:10:02.953Z,9.48
2022-11-15T05:12:48.821Z,14.02
2022-11-15T05:15:34.649Z,10.07
2022-11-15T05:18:23.596Z,10.23
2022-11-15T05:21:11.065Z,12.70
2022-11-15T05:23:57.100Z,19.05
2022-11-15T05:26:45.174Z,9.88
2022-11-15T05:29:31.057Z,15.32
2022-11-15T05:32:18.021Z,8.90
2022-11-15T05:35:07.263Z,8.63
2022-11-15T05:37:53.500Z,8.48
2022-11-15T05:40:40.408Z,9.77
2022-11-15T05:43:26.461Z,11.25
2022-11-15T05:46:12.471Z,16.92
2022-11-15T05:48:59.326Z,11.02
2022-11-15T05:51:45.985Z,12.23
2022-11-15T05:54:32.886Z,12.90
2022-11-15T05:57:22.664Z,7.75
2022-11-15T06:00:09.161Z,7.20
2022-11-15T06:02:55.885Z,9.20
2022-11-15T06:05:42.107Z,8.70
2022-11-15T06:08:28.515Z,10.82
2022-11-15T06:11:14.429Z,8.23
2022-11-15T06:14:00.182Z,8.48
2022-11-15T06:16:45.988Z,10.18
2022-11-15T06:19:33.872Z,10.30
2022-11-15T06:22:19.966Z,14.23
2022-11-15T06:25:06.892Z,9.88
2022-11-15T06:27:53.644Z,8.35
2022-11-15T06:30:39.533Z,8.20
2022-11-15T06:33:25.320Z,14.10
2022-11-15T06:36:17.496Z,13.13
2022-11-15T06:39:04.867Z,14.77
2022-11-15T06:41:51.006Z,8.90
2022-11-15T06:44:36.887Z,9.18
2022-11-15T06:47:22.740Z,12.80
2022-11-15T06:50:08.756Z,9.98
2022-11-15T06:52:55.530Z,7.70
2022-11-15T06:55:41.510Z,9.27
2022-11-15T06:58:27.506Z,11.15
2022-11-15T07:01:14.018Z,10.20
2022-11-15T07:04:00.155Z,10.05
2022-11-15T07:06:48.486Z,11.05
2022-11-15T07:09:34.402Z,9.85
2022-11-15T07:12:20.176Z,12.65
2022-11-15T07:15:06.157Z,12.13
2022-11-15T07:17:52.290Z,10.07
2022-11-15T07:20:38.158Z,11.77
2022-11-15T07:23:23.898Z,8.77
2022-11-15T07:26:10.007Z,10.00
2022-11-15T07:28:56.611Z,9.85
2022-11-15T07:31:42.503Z,10.32
2022-11-15T07:34:28.372Z,16.85
2022-11-15T07:37:14.389Z,11.35
2022-11-15T07:40:03.765Z,9.90
2022-11-15T07:42:56.801Z,11.95
2022-11-15T07:45:46.743Z,17.70
2022-11-15T07:48:43.221Z,11.85
2022-11-15T07:51:30.539Z,9.98
2022-11-15T07:54:16.336Z,11.55
2022-11-15T07:57:06.875Z,13.60
2022-11-15T07:59:53.407Z,9.55
2022-11-15T08:02:39.270Z,10.98
2022-11-15T08:05:25.467Z,9.93
2022-11-15T08:08:12.250Z,8.32
2022-11-15T08:11:01.211Z,9.60
2022-11-15T08:13:46.962Z,11.63
2022-11-15T08:16:33.184Z,9.43
2022-11-15T08:19:18.883Z,9.38
2022-11-15T08:22:04.698Z,11.18
2022-11-15T08:24:50.370Z,12.10
2022-11-15T08:27:36.277Z,12.18
2022-11-15T08:30:22.635Z,12.55
2022-11-15T08:33:11.813Z,9.77
2022-11-15T08:35:58.394Z,11.63
2022-11-15T08:38:44.301Z,10.52
2022-11-15T08:41:32.751Z,17.23
2022-11-15T08:44:18.499Z,14.35
2022-11-15T08:47:04.496Z,13.18
2022-11-15T08:49:50.103Z,11.13
2022-11-15T08:52:35.887Z,10.32
2022-11-15T08:55:24.545Z,10.68
2022-11-15T08:58:11.031Z,10.63
2022-11-15T09:00:56.817Z,9.77
2022-11-15T09:03:42.989Z,10.10
2022-11-15T09:06:28.886Z,11.35
2022-11-15T09:09:15.992Z,10.02
2022-11-15T09:12:03.005Z,11.05
2022-11-15T09:14:48.664Z,10.00
2022-11-15T09:17:34.482Z,12.52
2022-11-15T09:20:20.628Z,11.23
2022-11-15T09:23:07.018Z,10.10
2022-11-15T09:25:53.214Z,10.02
2022-11-15T09:28:42.569Z,10.60
2022-11-15T09:31:28.311Z,11.23
2022-11-15T09:34:14.166Z,11.80
2022-11-15T09:37:00.129Z,11.80
2022-11-15T09:39:45.911Z,12.63
2022-11-15T09:42:50.348Z,11.25
2022-11-15T09:45:39.214Z,12.15
2022-11-15T09:48:50.370Z,9.82
2022-11-15T09:51:47.549Z,10.25
2022-11-15T09:57:31.561Z,12.43
2022-11-15T10:03:16.612Z,10.93
2022-11-15T10:05:45.661Z,10.50
2022-11-15T10:08:22.381Z,11.75
2022-11-15T10:11:05.003Z,11.80
2022-11-15T10:13:41.918Z,13.48
2022-11-15T10:16:24.541Z,10.88
2022-11-15T10:19:14.833Z,11.50
2022-11-15T10:21:42.092Z,10.88
2022-11-15T10:24:12.499Z,11.27
2022-11-15T10:26:40.023Z,10.90
2022-11-15T10:29:07.250Z,13.25
2022-11-15T10:31:34.545Z,12.30
2022-11-15T10:34:20.764Z,13.45
2022-11-15T10:36:55.342Z,12.10
2022-11-15T10:39:22.619Z,14.75
2022-11-15T10:41:50.009Z,17.02
2022-11-15T10:44:20.168Z,15.07
2022-11-15T10:47:05.905Z,13.68
2022-11-15T10:49:34.167Z,14.95
2022-11-15T10:52:04.469Z,21.92
2022-11-15T10:54:36.494Z,16.45
2022-11-15T10:59:39.006Z,14.02
2022-11-15T11:02:25.233Z,18.23
2022-11-15T11:04:52.846Z,19.50
2022-11-15T11:07:27.357Z,18.27
2022-11-15T11:10:49.295Z,15.10
2022-11-15T11:13:16.576Z,15.10
2022-11-15T11:15:46.708Z,20.60
2022-11-15T11:18:23.416Z,19.10
2022-11-15T11:20:59.813Z,16.77
2022-11-15T11:23:46.341Z,17.00
2022-11-15T11:26:13.584Z,17.85
2022-11-15T11:28:40.857Z,17.77
2022-11-15T11:31:17.332Z,18.13
2022-11-15T11:34:02.917Z,17.35
2022-11-15T11:36:39.584Z,19.60
2022-11-15T11:39:15.954Z,19.25
2022-11-15T11:42:02.060Z,18.15
2022-11-15T11:44:29.353Z,18.23
2022-11-15T11:47:05.505Z,21.13
2022-11-15T11:49:36.933Z,18.40
2022-11-15T11:52:12.079Z,21.58
2022-11-15T11:54:47.131Z,23.75
2022-11-15T11:57:34.915Z,21.48
2022-11-15T12:00:05.050Z,24.42
2022-11-15T12:02:42.837Z,23.33
2022-11-15T12:05:24.300Z,21.77
2022-11-15T12:07:53.540Z,24.75
2022-11-15T12:10:24.281Z,24.38
2022-11-15T12:12:57.827Z,23.77
2022-11-15T12:15:45.062Z,23.88
2022-11-15T12:18:17.024Z,24.52
2022-11-15T12:23:17.042Z,23.08
2022-11-15T12:25:49.902Z,24.77
2022-11-15T12:28:20.330Z,24.45
2022-11-15T12:30:51.131Z,25.73
2022-11-15T12:33:38.703Z,28.27
2022-11-15T12:36:24.406Z,24.35
2022-11-15T12:38:54.733Z,25.13
2022-11-15T12:41:22.929Z,25.30
2022-11-15T12:43:50.705Z,28.67
2022-11-15T12:46:30.232Z,28.08
2022-11-15T12:49:05.210Z,29.23
2022-11-15T12:51:44.948Z,25.55
2022-11-15T12:54:24.434Z,24.33
2022-11-15T12:57:04.116Z,25.17
2022-11-15T12:59:49.702Z,29.08
2022-11-15T13:02:35.003Z,26.90
2022-11-15T13:05:20.605Z,27.00
2022-11-15T13:07:47.831Z,24.75
2022-11-15T13:10:15.093Z,24.30
2022-11-15T13:12:45.374Z,27.23
2022-11-15T13:15:12.691Z,30.20
2022-11-15T13:17:41.303Z,30.42
2022-11-15T13:20:08.596Z,30.05
2022-11-15T13:23:00.183Z,32.92
2022-11-15T13:25:45.596Z,22.25
2022-11-15T13:28:22.529Z,25.42
2022-11-15T13:30:53.633Z,25.60
2022-11-15T13:33:24.023Z,27.40
2022-11-15T13:35:53.241Z,26.40
2022-11-15T13:38:30.811Z,34.83
2022-11-15T13:40:59.203Z,35.17
2022-11-15T13:43:31.342Z,30.95
2022-11-15T13:46:07.564Z,37.13
2022-11-15T13:48:35.326Z,31.52
2022-11-15T13:51:04.346Z,33.75
2022-11-15T13:53:32.890Z,29.88
2022-11-15T13:56:00.915Z,34.75
2022-11-15T13:58:28.321Z,34.97
2022-11-15T14:01:03.106Z,31.42
2022-11-15T14:03:31.845Z,32.40
2022-11-15T14:06:02.140Z,33.15
2022-11-15T14:08:29.523Z,30.45
2022-11-15T14:11:09.053Z,35.00
2022-11-15T14:13:36.766Z,32.75
2022-11-15T14:16:23.170Z,32.03
2022-11-15T14:18:54.237Z,28.80
2022-11-15T14:21:21.921Z,31.27
2022-11-15T14:23:50.012Z,34.65
2022-11-15T14:26:30.143Z,31.95
2022-11-15T14:28:57.533Z,26.35
2022-11-15T14:31:24.961Z,31.52
2022-11-15T14:33:52.274Z,33.05
2022-11-15T14:36:21.131Z,30.88
2022-11-15T14:38:48.925Z,29.98
2022-11-15T14:41:19.351Z,28.95
2022-11-15T14:43:46.676Z,26.23
2022-11-15T14:46:14.065Z,30.33
2022-11-15T14:48:41.487Z,26.95
2022-11-15T14:51:16.122Z,27.15
2022-11-15T14:53:44.013Z,25.35
2022-11-15T14:56:12.040Z,27.95
2022-11-15T14:58:39.529Z,27.13
2022-11-15T15:01:19.863Z,26.80
2022-11-15T15:03:47.274Z,27.98
2022-11-15T15:06:17.905Z,28.50
2022-11-15T15:08:46.984Z,26.60
2022-11-15T15:11:32.790Z,29.10
2022-11-15T15:14:02.085Z,28.50
2022-11-15T15:16:35.285Z,32.47
2022-11-15T15:19:02.708Z,36.80
2022-11-15T15:21:36.861Z,44.13
2022-11-15T15:24:05.686Z,38.22
2022-11-15T15:26:37.431Z,53.15
2022-11-15T15:31:33.743Z,38.55
2022-11-15T15:34:01.154Z,37.65
2022-11-15T15:36:28.523Z,37.08
2022-11-15T15:38:55.883Z,33.58
2022-11-15T15:41:23.192Z,33.42
2022-11-15T15:43:50.515Z,30.80
2022-11-15T15:46:18.958Z,30.17
2022-11-15T15:48:46.711Z,27.02
2022-11-15T15:51:19.818Z,30.98
2022-11-15T15:53:48.033Z,34.53
2022-11-15T15:56:15.368Z,33.42
2022-11-15T15:58:42.684Z,27.90
2022-11-15T16:01:10.243Z,32.65
2022-11-15T16:03:37.716Z,28.13
2022-11-15T16:06:06.179Z,26.75
2022-11-15T16:08:47.571Z,30.08
2022-11-15T16:11:20.873Z,27.63
2022-11-15T16:13:48.219Z,25.25
2022-11-15T16:16:15.651Z,30.17
2022-11-15T16:18:45.893Z,25.27
2022-11-15T16:21:13.211Z,27.25
2022-11-15T16:23:40.525Z,30.05
2022-11-15T16:26:22.579Z,26.80
2022-11-15T16:28:49.959Z,28.67
2022-11-15T16:31:19.261Z,26.75
2022-11-15T16:33:46.998Z,30.98
2022-11-15T16:36:29.980Z,28.88
2022-11-15T16:38:58.892Z,35.78
2022-11-15T16:41:26.418Z,42.45
2022-11-15T16:43:53.700Z,34.85
2022-11-15T16:46:22.070Z,34.30
2022-11-15T16:48:49.898Z,43.45
2022-11-15T16:51:17.607Z,41.70
2022-11-15T16:53:45.050Z,41.00
2022-11-15T16:56:29.061Z,37.22
2022-11-15T16:59:00.402Z,38.35
2022-11-15T17:01:28.720Z,35.65
2022-11-15T17:03:56.392Z,29.75
2022-11-15T17:06:24.478Z,35.45
2022-11-15T17:08:51.788Z,30.63
2022-11-15T17:11:20.476Z,27.50
2022-11-15T17:13:48.710Z,28.75
2022-11-15T17:16:17.189Z,27.50
2022-11-15T17:18:45.649Z,27.77
2022-11-15T17:21:15.334Z,25.00
2022-11-15T17:23:42.989Z,30.13
2022-11-15T17:26:28.876Z,32.17
2022-11-15T17:28:57.492Z,34.13
2022-11-15T17:31:25.386Z,32.45
2022-11-15T17:33:52.756Z,33.42
2022-11-15T17:36:21.187Z,30.58
2022-11-15T17:38:58.068Z,37.05
2022-11-15T17:41:26.827Z,29.92
2022-11-15T17:43:54.262Z,39.35
2022-11-15T17:46:21.674Z,43.90
2022-11-15T17:48:49.400Z,29.25
2022-11-15T17:51:17.650Z,31.77
2022-11-15T17:53:49.202Z,29.73
2022-11-15T17:56:20.806Z,25.73
2022-11-15T17:58:59.163Z,24.30
2022-11-15T18:01:27.774Z,29.75
2022-11-15T18:03:55.697Z,35.80
2022-11-15T18:06:24.184Z,42.28
2022-11-15T18:08:52.203Z,30.50
2022-11-15T18:11:21.699Z,30.13
2022-11-15T18:13:52.405Z,27.75
2022-11-15T18:16:21.363Z,25.95
2022-11-15T18:18:49.071Z,26.23
2022-11-15T18:21:18.690Z,25.17
2022-11-15T18:23:46.337Z,28.25
2022-11-15T18:26:14.489Z,31.65
2022-11-15T18:28:42.945Z,29.08
2022-11-15T18:31:15.067Z,30.92
2022-11-15T18:33:43.018Z,31.50
2022-11-15T18:36:12.646Z,26.23
2022-11-15T18:38:40.088Z,29.30
2022-11-15T18:41:10.335Z,27.37
2022-11-15T18:43:38.119Z,31.52
2022-11-15T18:46:06.349Z,25.92
2022-11-15T18:48:36.929Z,23.30
2022-11-15T18:51:05.568Z,21.23
2022-11-15T18:53:33.453Z,21.95
2022-11-15T18:56:05.470Z,28.42
2022-11-15T19:01:08.300Z,20.17
2022-11-15T19:03:36.700Z,25.65
2022-11-15T19:06:15.473Z,23.48
2022-11-15T19:08:43.408Z,24.90
2022-11-15T19:11:19.122Z,22.73
2022-11-15T19:13:46.932Z,22.13
2022-11-15T19:16:15.239Z,23.77
2022-11-15T19:18:43.348Z,22.95
2022-11-15T19:21:14.863Z,22.45
2022-11-15T19:23:43.893Z,25.55
2022-11-15T19:26:12.776Z,21.42
2022-11-15T19:28:40.171Z,23.95
2022-11-15T19:31:14.777Z,33.15
2022-11-15T19:33:42.937Z,32.15
2022-11-15T19:36:15.707Z,31.70
2022-11-15T19:38:43.190Z,30.75
2022-11-15T19:41:11.510Z,28.00
2022-11-15T19:43:38.836Z,25.73
2022-11-15T19:46:06.990Z,24.73
2022-11-15T19:48:34.934Z,22.00
2022-11-15T19:51:06.697Z,19.50
2022-11-15T19:53:35.448Z,20.67
2022-11-15T19:56:04.214Z,18.77
2022-11-15T19:58:31.704Z,17.83
2022-11-15T20:01:03.356Z,19.20
2022-11-15T20:03:32.369Z,17.75
2022-11-15T20:06:04.198Z,16.00
2022-11-15T20:08:32.095Z,20.23
2022-11-15T20:11:00.273Z,22.80
2022-11-15T20:13:28.256Z,18.02
2022-11-15T20:15:56.694Z,17.58
2022-11-15T20:18:24.813Z,17.58
2022-11-15T20:20:52.527Z,19.38
2022-11-15T20:23:19.817Z,19.20
2022-11-15T20:25:48.142Z,20.30
2022-11-15T20:28:16.794Z,17.35
2022-11-15T20:30:45.166Z,17.75
2022-11-15T20:33:12.910Z,18.60
2022-11-15T20:35:40.325Z,18.40
2022-11-15T20:38:11.092Z,21.63
2022-11-15T20:40:39.101Z,21.92
2022-11-15T20:43:06.523Z,19.38
2022-11-15T20:45:33.806Z,23.05
2022-11-15T20:48:01.087Z,30.65
2022-11-15T20:50:42.085Z,19.10
2022-11-15T20:53:11.249Z,22.70
2022-11-15T20:55:42.662Z,17.77
2022-11-15T20:58:10.391Z,21.27
2022-11-15T21:00:38.013Z,19.23
2022-11-15T21:03:06.862Z,20.30
2022-11-15T21:05:41.303Z,21.98
2022-11-15T21:08:08.994Z,21.40
2022-11-15T21:10:55.193Z,19.73
2022-11-15T21:13:23.008Z,21.23
2022-11-15T21:15:50.330Z,21.42
2022-11-15T21:18:17.663Z,20.83
2022-11-15T21:20:44.942Z,22.67
2022-11-15T21:23:12.445Z,21.38
2022-11-15T21:25:39.782Z,21.33
2022-11-15T21:28:07.076Z,24.75
2022-11-15T21:30:34.561Z,24.63
2022-11-15T21:33:01.932Z,21.50
2022-11-15T21:35:29.356Z,25.88
2022-11-15T21:37:57.303Z,22.10
2022-11-15T21:40:25.293Z,23.15
2022-11-15T21:42:52.608Z,23.65
2022-11-15T21:45:19.866Z,20.75
2022-11-15T21:47:47.154Z,24.08
2022-11-15T21:50:14.708Z,22.23
2022-11-15T21:52:42.164Z,22.17
2022-11-15T21:55:09.726Z,20.00
2022-11-15T21:57:37.092Z,21.35
2022-11-15T22:00:24.378Z,19.60
2022-11-15T22:02:51.647Z,20.85
2022-11-15T22:05:18.884Z,23.70
2022-11-15T22:07:46.711Z,21.55
2022-11-15T22:10:14.291Z,20.35
2022-11-15T22:12:41.554Z,20.85
2022-11-15T22:15:08.967Z,24.15
2022-11-15T22:17:54.898Z,21.83
2022-11-15T22:20:43.675Z,20.85
2022-11-15T22:23:10.136Z,22.17
2022-11-15T22:25:37.436Z,25.98
2022-11-15T22:28:06.228Z,19.48
2022-11-15T22:30:33.475Z,20.88
2022-11-15T22:33:00.841Z,23.90
2022-11-15T22:35:28.127Z,20.83
2022-11-15T22:37:55.524Z,21.80
2022-11-15T22:40:22.848Z,20.85
2022-11-15T22:42:50.182Z,22.08
2022-11-15T22:45:17.490Z,20.30
2022-11-15T22:47:44.887Z,21.45
2022-11-15T22:50:12.446Z,19.27
2022-11-15T22:52:39.858Z,18.98
2022-11-15T22:55:07.448Z,20.13
2022-11-15T22:57:38.102Z,19.38
2022-11-15T23:00:09.965Z,18.35
2022-11-15T23:02:37.451Z,17.50
2022-11-15T23:05:05.436Z,18.45
2022-11-15T23:07:36.661Z,18.95
2022-11-15T23:10:23.069Z,20.98
2022-11-15T23:13:09.239Z,18.95
2022-11-15T23:15:55.241Z,18.20
2022-11-15T23:18:22.590Z,16.58
2022-11-15T23:20:49.949Z,18.27
2022-11-15T23:23:17.305Z,17.15
2022-11-15T23:25:44.644Z,17.27
2022-11-15T23:28:11.957Z,18.20
2022-11-15T23:30:58.334Z,19.50
2022-11-15T23:33:44.317Z,17.80
2022-11-15T23:36:11.629Z,19.80
2022-11-15T23:38:39.204Z,22.25
2022-11-15T23:41:06.781Z,20.48
2022-11-15T23:43:34.303Z,21.40
2022-11-15T23:46:01.961Z,20.73
2022-11-15T23:48:29.835Z,17.70
2022-11-15T23:50:57.367Z,18.75
2022-11-15T23:53:24.646Z,21.52
2022-11-15T23:55:56.170Z,19.00
2022-11-15T23:58:23.557Z,18.83
